createdAt,value
2022-12-03T00:02:04.213Z,101.10
2022-12-03T00:04:32.548Z,101.80
2022-12-03T00:07:03.537Z,106.40
2022-12-03T00:09:34.251Z,103.00
2022-12-03T00:12:02.637Z,103.40
2022-12-03T00:14:53.609Z,110.10
2022-12-03T00:17:26.188Z,102.60
2022-12-03T00:19:54.452Z,112.60
2022-12-03T00:22:22.752Z,108.40
2022-12-03T00:24:51.444Z,102.20
2022-12-03T00:27:21.412Z,116.30
2022-12-03T00:29:51.915Z,113.90
2022-12-03T00:32:20.308Z,120.70
2022-12-03T00:34:51.966Z,100.60
2022-12-03T00:37:22.821Z,110.90
2022-12-03T00:40:03.783Z,109.70
2022-12-03T00:42:36.884Z,108.70
2022-12-03T00:45:22.992Z,113.20
2022-12-03T00:47:55.630Z,116.30
2022-12-03T00:50:25.536Z,110.00
2022-12-03T00:52:54.398Z,108.70
2022-12-03T00:55:22.664Z,116.30
2022-12-03T00:57:53.406Z,116.30
2022-12-03T01:00:24.770Z,124.50
2022-12-03T01:02:53.256Z,120.80
2022-12-03T01:05:24.624Z,119.10
2022-12-03T01:07:55.357Z,115.00
2022-12-03T01:10:23.929Z,129.40
2022-12-03T01:12:52.394Z,122.60
2022-12-03T01:15:24.051Z,119.30
2022-12-03T01:17:54.382Z,128.00
2022-12-03T01:20:25.419Z,137.70
2022-12-03T01:22:53.916Z,133.00
2022-12-03T01:25:22.371Z,130.80
2022-12-03T01:27:54.080Z,130.50
2022-12-03T01:30:22.643Z,118.70
2022-12-03T01:32:50.963Z,116.50
2022-12-03T01:35:19.307Z,128.00
2022-12-03T01:37:50.173Z,118.80
2022-12-03T01:40:21.842Z,130.20
2022-12-03T01:42:56.302Z,125.40
2022-12-03T01:45:27.237Z,123.40
2022-12-03T01:47:57.461Z,121.60
2022-12-03T01:50:33.939Z,118.10
2022-12-03T01:53:04.140Z,114.40
2022-12-03T01:55:33.700Z,124.20
2022-12-03T01:58:04.596Z,118.00
2022-12-03T02:00:38.536Z,116.00
2022-12-03T02:03:18.965Z,113.70
2022-12-03T02:05:53.602Z,110.90
2022-12-03T02:08:35.287Z,114.70
2022-12-03T02:11:09.256Z,111.00
2022-12-03T02:13:40.537Z,130.20
2022-12-03T02:16:09.148Z,117.60
2022-12-03T02:18:49.167Z,122.40
2022-12-03T02:21:30.951Z,120.80
2022-12-03T02:24:17.004Z,131.00
2022-12-03T02:26:54.955Z,115.70
2022-12-03T02:29:40.672Z,112.30
2022-12-03T02:32:17.971Z,115.00
2022-12-03T02:34:53.985Z,127.20
2022-12-03T02:37:38.439Z,134.20
2022-12-03T02:40:14.165Z,137.40
2022-12-03T02:42:46.118Z,134.20
2022-12-03T02:45:22.932Z,150.50
2022-12-03T02:47:55.346Z,161.60
2022-12-03T02:50:34.032Z,152.30
2022-12-03T02:53:13.456Z,138.10
2022-12-03T02:55:44.951Z,137.80
2022-12-03T02:58:16.134Z,126.80
2022-12-03T03:00:46.683Z,125.00
2022-12-03T03:03:17.538Z,120.20
2022-12-03T03:05:51.751Z,131.60
2022-12-03T03:08:25.512Z,129.20
2022-12-03T03:10:55.772Z,136.10
2022-12-03T03:13:24.094Z,147.90
2022-12-03T03:16:04.010Z,152.40
2022-12-03T03:18:42.471Z,165.20
2022-12-03T03:21:12.997Z,146.80
2022-12-03T03:23:45.831Z,148.60
2022-12-03T03:26:18.647Z,153.40
2022-12-03T03:28:50.292Z,189.70
2022-12-03T03:31:23.749Z,218.70
2022-12-03T03:33:54.503Z,209.30
2022-12-03T03:36:24.808Z,178.70
2022-12-03T03:38:53.285Z,161.90
2022-12-03T03:41:22.037Z,148.80
2022-12-03T03:43:50.735Z,148.20
2022-12-03T03:46:20.216Z,141.70
2022-12-03T03:48:50.114Z,129.30
2022-12-03T03:51:19.780Z,124.10
2022-12-03T03:53:49.984Z,117.50
2022-12-03T03:56:20.507Z,113.50
2022-12-03T03:58:49.186Z,121.90
2022-12-03T04:01:18.273Z,115.50
2022-12-03T04:03:46.734Z,121.60
2022-12-03T04:06:15.157Z,112.40
2022-12-03T04:08:43.349Z,111.20
2022-12-03T04:11:29.940Z,124.80
2022-12-03T04:13:58.192Z,120.70
2022-12-03T04:16:26.628Z,129.80
2022-12-03T04:18:55.123Z,122.50
2022-12-03T04:21:42.696Z,116.60
2022-12-03T04:24:11.706Z,119.20
2022-12-03T04:26:58.492Z,123.40
2022-12-03T04:29:29.228Z,137.80
2022-12-03T04:32:16.145Z,125.60
2022-12-03T04:35:02.772Z,130.80
2022-12-03T04:37:31.211Z,119.80
2022-12-03T04:39:59.413Z,128.30
2022-12-03T04:42:27.687Z,130.70
2022-12-03T04:44:56.295Z,124.40
2022-12-03T04:47:24.727Z,122.20
2022-12-03T04:49:53.068Z,133.50
2022-12-03T04:52:23.367Z,128.80
2022-12-03T04:54:52.016Z,113.40
2022-12-03T04:57:27.576Z,117.70
2022-12-03T05:00:00.963Z,120.40
2022-12-03T05:02:29.397Z,110.30
2022-12-03T05:04:57.932Z,113.10
2022-12-03T05:07:27.315Z,122.00
2022-12-03T05:09:55.590Z,116.80
2022-12-03T05:12:23.884Z,114.50
2022-12-03T05:14:52.743Z,118.30
2022-12-03T05:17:22.575Z,159.20
2022-12-03T05:20:10.436Z,142.00
2022-12-03T05:22:41.779Z,130.60
2022-12-03T05:25:13.099Z,137.00
2022-12-03T05:27:56.225Z,129.90
2022-12-03T05:30:29.105Z,135.50
2022-12-03T05:32:58.474Z,145.30
2022-12-03T05:35:31.742Z,135.50
2022-12-03T05:38:00.242Z,127.30
2022-12-03T05:40:33.740Z,128.60
2022-12-03T05:43:17.036Z,120.60
2022-12-03T05:45:54.420Z,145.70
2022-12-03T05:48:23.071Z,118.00
2022-12-03T05:50:58.375Z,134.00
2022-12-03T05:53:54.244Z,137.60
2022-12-03T05:56:32.690Z,122.00
2022-12-03T05:59:08.614Z,120.70
2022-12-03T06:01:43.075Z,112.40
2022-12-03T06:04:16.586Z,114.00
2022-12-03T06:07:03.706Z,113.90
2022-12-03T06:09:38.140Z,105.70
2022-12-03T06:12:11.324Z,127.20
2022-12-03T06:14:46.563Z,125.90
2022-12-03T06:17:38.969Z,114.30
2022-12-03T06:20:12.076Z,114.60
2022-12-03T06:22:43.065Z,106.70
2022-12-03T06:25:38.502Z,108.20
2022-12-03T06:28:09.256Z,112.90
2022-12-03T06:30:55.346Z,106.60
2022-12-03T06:33:29.762Z,115.50
2022-12-03T06:36:23.290Z,107.10
2022-12-03T06:38:57.878Z,98.80
2022-12-03T06:41:30.619Z,107.60
2022-12-03T06:43:59.077Z,107.50
2022-12-03T06:47:02.091Z,122.20
2022-12-03T06:49:39.841Z,134.50
2022-12-03T06:52:08.204Z,132.60
2022-12-03T06:54:41.246Z,116.10
2022-12-03T06:57:12.355Z,112.30
2022-12-03T06:59:45.306Z,106.50
2022-12-03T07:02:13.729Z,98.60
2022-12-03T07:04:46.220Z,101.90
2022-12-03T07:07:17.575Z,98.80
2022-12-03T07:09:46.192Z,96.00
2022-12-03T07:12:23.398Z,102.00
2022-12-03T07:15:17.857Z,104.00
2022-12-03T07:17:59.364Z,108.30
2022-12-03T07:20:38.707Z,96.20
2022-12-03T07:23:18.565Z,100.60
2022-12-03T07:25:51.781Z,107.60
2022-12-03T07:28:38.245Z,100.90
2022-12-03T08:02:28.913Z,99.60
2022-12-03T08:05:13.307Z,83.20
2022-12-03T08:08:06.662Z,70.00
2022-12-03T08:10:39.861Z,72.30
2022-12-03T08:16:38.810Z,64.00
2022-12-03T08:20:10.310Z,61.30
2022-12-03T08:22:50.442Z,56.00
2022-12-03T08:26:08.712Z,51.70
2022-12-03T08:28:43.777Z,54.70
2022-12-03T08:32:01.665Z,49.90
2022-12-03T08:35:04.782Z,47.50
2022-12-03T08:38:15.930Z,53.90
2022-12-03T08:40:55.636Z,56.10
2022-12-03T08:43:40.452Z,54.10
2022-12-03T08:46:25.102Z,51.70
2022-12-03T08:49:26.470Z,50.20
2022-12-03T08:52:09.827Z,51.50
2022-12-03T08:54:36.863Z,53.90
2022-12-03T08:57:49.263Z,58.20
2022-12-03T09:00:34.797Z,50.40
2022-12-03T09:03:06.012Z,59.00
2022-12-03T09:05:33.198Z,48.70
2022-12-03T09:08:07.643Z,46.80
2022-12-03T09:10:38.316Z,47.00
2022-12-03T09:13:31.590Z,45.70
2022-12-03T09:16:00.550Z,46.00
2022-12-03T09:18:36.062Z,50.40
2022-12-03T09:21:07.013Z,56.50
2022-12-03T09:23:40.056Z,54.30
2022-12-03T09:26:26.658Z,49.60
2022-12-03T09:29:02.080Z,37.70
2022-12-03T09:32:02.231Z,41.00
2022-12-03T09:34:36.078Z,42.00
2022-12-03T09:37:11.709Z,44.70
2022-12-03T09:40:28.572Z,55.90
2022-12-03T09:43:00.842Z,41.90
2022-12-03T09:45:34.190Z,41.00
2022-12-03T09:48:04.870Z,45.90
2022-12-03T09:50:32.194Z,42.10
2022-12-03T09:53:03.269Z,47.00
2022-12-03T09:55:30.737Z,46.50
2022-12-03T09:57:58.284Z,44.60
2022-12-03T10:00:32.533Z,46.90
2022-12-03T10:03:04.065Z,50.40
2022-12-03T10:05:30.894Z,45.70
2022-12-03T10:08:05.115Z,42.20
2022-12-03T10:10:34.796Z,48.60
2022-12-03T10:13:02.973Z,56.90
2022-12-03T10:15:31.593Z,53.60
2022-12-03T10:18:00.900Z,51.80
2022-12-03T10:20:30.534Z,51.20
2022-12-03T10:22:57.657Z,52.40
2022-12-03T10:25:25.952Z,53.10
2022-12-03T10:28:16.295Z,49.10
2022-12-03T10:30:59.013Z,49.20
2022-12-03T10:33:55.448Z,53.60
2022-12-03T10:36:27.111Z,50.10
2022-12-03T10:39:14.073Z,53.50
2022-12-03T10:41:54.038Z,49.60
2022-12-03T10:44:32.625Z,56.30
2022-12-03T10:47:26.119Z,50.00
2022-12-03T10:50:02.810Z,58.00
2022-12-03T10:52:29.857Z,43.70
2022-12-03T10:54:56.912Z,46.00
2022-12-03T10:57:24.356Z,45.90
2022-12-03T10:59:52.637Z,49.80
2022-12-03T11:02:23.736Z,44.60
2022-12-03T11:05:14.944Z,42.40
2022-12-03T11:07:56.269Z,44.70
2022-12-03T11:10:23.443Z,39.20
2022-12-03T11:13:27.561Z,39.50
2022-12-03T11:15:54.787Z,31.70
2022-12-03T11:18:36.270Z,33.90
2022-12-03T11:21:05.077Z,33.20
2022-12-03T11:23:43.898Z,34.70
2022-12-03T11:26:36.485Z,39.10
2022-12-03T11:29:12.521Z,38.60
2022-12-03T11:31:45.927Z,43.20
2022-12-03T11:34:15.694Z,66.40
2022-12-03T11:37:19.622Z,78.10
2022-12-03T11:39:49.228Z,45.10
2022-12-03T11:42:27.870Z,49.60
2022-12-03T11:45:03.821Z,52.50
2022-12-03T11:47:39.043Z,65.40
2022-12-03T11:50:41.394Z,62.00
2022-12-03T11:53:15.382Z,67.90
2022-12-03T11:55:52.703Z,61.00
2022-12-03T11:58:29.895Z,59.20
2022-12-03T12:01:02.678Z,69.40
2022-12-03T12:03:42.889Z,77.40
2022-12-03T12:06:14.689Z,83.80
2022-12-03T12:09:03.383Z,77.20
2022-12-03T12:11:33.035Z,72.90
2022-12-03T12:13:59.575Z,68.70
2022-12-03T12:16:45.132Z,84.10
2022-12-03T12:19:30.284Z,71.00
2022-12-03T12:22:16.934Z,62.00
2022-12-03T12:24:50.963Z,70.80
2022-12-03T12:27:17.486Z,67.90
2022-12-03T12:29:50.580Z,65.80
2022-12-03T12:32:19.461Z,60.90
2022-12-03T12:34:52.756Z,70.70
2022-12-03T12:37:21.139Z,71.10
2022-12-03T12:40:01.503Z,62.30
2022-12-03T12:45:31.025Z,66.90
2022-12-03T12:48:09.649Z,65.10
2022-12-03T12:50:38.208Z,68.30
2022-12-03T12:53:24.319Z,60.50
2022-12-03T12:56:32.865Z,70.90
2022-12-03T12:59:12.440Z,64.20
2022-12-03T13:01:40.707Z,74.40
2022-12-03T13:04:17.118Z,67.40
2022-12-03T13:06:46.310Z,66.20
2022-12-03T13:09:17.629Z,66.30
2022-12-03T13:11:46.617Z,62.50
2022-12-03T13:14:24.719Z,69.80
2022-12-03T13:16:53.897Z,65.10
2022-12-03T13:19:26.126Z,64.10
2022-12-03T13:22:01.306Z,70.20
2022-12-03T13:24:40.317Z,67.10
2022-12-03T13:27:13.242Z,65.50
2022-12-03T13:29:40.132Z,58.00
2022-12-03T13:32:15.607Z,55.40
2022-12-03T13:34:43.901Z,62.40
2022-12-03T13:37:26.287Z,55.20
2022-12-03T13:40:05.292Z,58.40
2022-12-03T13:42:38.464Z,59.50
2022-12-03T13:45:14.434Z,61.60
2022-12-03T13:47:43.174Z,56.30
2022-12-03T13:50:21.279Z,55.70
2022-12-03T13:52:47.903Z,66.20
2022-12-03T13:55:24.225Z,67.00
2022-12-03T13:57:50.788Z,56.80
2022-12-03T14:00:17.805Z,71.30
2022-12-03T14:02:51.584Z,81.90
2022-12-03T14:05:33.860Z,67.70
2022-12-03T14:08:04.285Z,64.90
2022-12-03T14:11:03.970Z,64.50
2022-12-03T14:13:30.737Z,57.80
2022-12-03T14:15:57.430Z,67.60
2022-12-03T14:18:24.194Z,66.30
2022-12-03T14:20:52.251Z,64.70
2022-12-03T14:23:18.829Z,66.20
2022-12-03T14:25:45.375Z,61.80
2022-12-03T14:28:14.527Z,69.40
2022-12-03T14:30:55.344Z,67.10
2022-12-03T14:33:24.920Z,66.30
2022-12-03T14:35:53.695Z,75.30
2022-12-03T14:38:20.727Z,75.80
2022-12-03T14:40:47.619Z,87.20
2022-12-03T14:43:18.876Z,80.00
2022-12-03T14:45:48.290Z,83.80
2022-12-03T14:48:15.140Z,87.50
2022-12-03T14:50:49.278Z,80.30
2022-12-03T14:53:16.353Z,80.20
2022-12-03T14:55:44.969Z,81.00
2022-12-03T14:58:13.041Z,78.20
2022-12-03T15:00:44.349Z,72.90
2022-12-03T15:03:11.164Z,89.20
2022-12-03T15:05:37.944Z,86.40
2022-12-03T15:08:04.791Z,90.00
2022-12-03T15:10:31.905Z,87.70
2022-12-03T15:12:59.003Z,84.30
2022-12-03T15:15:29.260Z,80.20
2022-12-03T15:17:56.316Z,86.60
2022-12-03T15:20:23.511Z,87.10
2022-12-03T15:22:57.071Z,97.10
2022-12-03T15:25:25.077Z,88.90
2022-12-03T15:27:59.743Z,92.60
2022-12-03T15:30:35.587Z,90.50
2022-12-03T15:33:17.917Z,88.70
2022-12-03T15:35:51.112Z,87.20
2022-12-03T15:38:18.772Z,78.00
2022-12-03T15:40:45.799Z,74.50
2022-12-03T15:43:27.135Z,81.00
2022-12-03T15:45:54.198Z,88.80
2022-12-03T15:48:21.173Z,85.40
2022-12-03T15:50:48.085Z,80.00
2022-12-03T15:53:14.874Z,98.80
2022-12-03T15:55:41.700Z,94.80
2022-12-03T15:58:08.692Z,96.90
2022-12-03T16:00:35.630Z,92.40
2022-12-03T16:03:02.589Z,106.30
2022-12-03T16:05:29.677Z,103.00
2022-12-03T16:07:59.618Z,113.40
2022-12-03T16:10:28.848Z,127.60
2022-12-03T16:12:56.058Z,125.80
2022-12-03T16:15:27.518Z,159.20
2022-12-03T16:17:56.155Z,162.30
2022-12-03T16:20:26.807Z,168.70
2022-12-03T16:22:54.671Z,162.90
2022-12-03T16:25:21.725Z,138.00
2022-12-03T16:27:52.329Z,132.90
2022-12-03T16:31:22.065Z,145.00
2022-12-03T16:33:48.861Z,141.30
2022-12-03T16:36:16.493Z,136.00
2022-12-03T16:38:44.612Z,138.40
2022-12-03T16:41:11.630Z,138.60
2022-12-03T16:43:38.845Z,144.30
2022-12-03T16:46:18.457Z,149.00
2022-12-03T16:48:47.640Z,151.80
2022-12-03T16:51:15.220Z,142.70
2022-12-03T16:53:42.353Z,161.80
2022-12-03T16:56:11.657Z,171.60
2022-12-03T16:58:40.866Z,174.70
2022-12-03T17:01:08.472Z,171.90
2022-12-03T17:03:35.754Z,186.80
2022-12-03T17:06:04.054Z,184.20
2022-12-03T17:08:31.041Z,187.40
2022-12-03T17:11:00.211Z,171.20
2022-12-03T17:13:27.282Z,176.90
2022-12-03T17:15:55.648Z,177.50
2022-12-03T17:18:27.981Z,180.50
2022-12-03T17:20:54.922Z,166.40
2022-12-03T17:23:21.997Z,169.20
2022-12-03T17:25:56.871Z,175.00
2022-12-03T17:28:23.823Z,163.50
2022-12-03T17:30:54.023Z,156.30
2022-12-03T17:33:25.626Z,150.30
2022-12-03T17:40:21.767Z,156.20
2022-12-03T17:42:53.466Z,153.60
2022-12-03T17:45:23.382Z,144.30
2022-12-03T17:47:57.869Z,165.30
2022-12-03T17:50:39.316Z,155.60
2022-12-03T17:53:24.110Z,147.60
2022-12-03T17:56:13.740Z,158.30
2022-12-03T17:58:58.052Z,142.80
2022-12-03T18:01:27.777Z,143.30
2022-12-03T18:04:09.381Z,148.50
2022-12-03T18:06:49.292Z,143.60
2022-12-03T18:09:17.950Z,135.60
2022-12-03T18:12:01.347Z,112.40
2022-12-03T18:14:28.325Z,116.80
2022-12-03T18:17:07.461Z,121.90
2022-12-03T18:22:20.124Z,99.10
2022-12-03T18:24:53.212Z,91.70
2022-12-03T18:27:24.194Z,91.60
2022-12-03T18:30:20.674Z,82.00
2022-12-03T18:32:48.153Z,83.50
2022-12-03T18:35:46.747Z,79.30
2022-12-03T18:38:37.242Z,75.90
2022-12-03T18:41:16.036Z,70.70
2022-12-03T18:44:13.023Z,70.20
2022-12-03T18:47:02.368Z,75.40
2022-12-03T18:49:38.373Z,77.70
2022-12-03T18:52:19.548Z,80.20
2022-12-03T18:54:49.241Z,68.10
2022-12-03T18:57:42.333Z,72.30
2022-12-03T19:00:51.681Z,68.50
2022-12-03T19:04:17.373Z,68.70
2022-12-03T19:06:46.939Z,65.00
2022-12-03T19:09:27.075Z,65.90
2022-12-03T19:12:05.840Z,71.10
2022-12-03T19:14:59.851Z,67.20
2022-12-03T19:17:35.379Z,67.20
2022-12-03T19:20:02.802Z,67.80
2022-12-03T19:24:16.441Z,56.80
2022-12-03T19:26:13.694Z,59.20
2022-12-03T19:29:08.082Z,57.40
2022-12-03T19:35:15.359Z,60.70
2022-12-03T19:39:09.766Z,60.00
2022-12-03T19:42:14.618Z,51.30
2022-12-03T19:45:54.916Z,59.00
2022-12-03T19:49:04.145Z,56.00
2022-12-03T19:52:29.168Z,54.20
2022-12-03T19:55:12.954Z,58.30
2022-12-03T19:57:46.597Z,53.00
2022-12-03T20:00:19.681Z,59.70
2022-12-03T20:03:50.475Z,59.20
2022-12-03T20:09:37.130Z,58.80
2022-12-03T20:12:07.756Z,59.80
2022-12-03T20:13:13.166Z,54.50
2022-12-03T20:14:46.396Z,63.30
2022-12-03T20:17:34.908Z,59.10
2022-12-03T20:20:29.407Z,56.30
2022-12-03T20:22:59.223Z,58.40
2022-12-03T20:25:38.474Z,57.50
2022-12-03T20:28:47.826Z,61.60
2022-12-03T20:31:38.209Z,66.60
2022-12-03T20:34:35.450Z,65.10
2022-12-03T20:37:39.960Z,64.80
2022-12-03T20:40:07.814Z,63.10
2022-12-03T20:42:34.928Z,67.60
2022-12-03T20:45:45.801Z,68.50
2022-12-03T20:48:41.556Z,66.40
2022-12-03T20:55:34.268Z,68.00
2022-12-03T21:01:22.865Z,76.50
2022-12-03T21:03:57.527Z,91.30
2022-12-03T21:06:27.558Z,93.40
2022-12-03T21:08:57.034Z,103.70
2022-12-03T21:11:31.892Z,80.60
2022-12-03T21:14:03.519Z,84.00
2022-12-03T21:17:07.131Z,74.70
2022-12-03T21:19:37.239Z,72.00
2022-12-03T21:22:27.504Z,71.80
2022-12-03T21:25:14.253Z,72.70
2022-12-03T21:27:41.189Z,83.00
2022-12-03T21:30:08.392Z,81.50
2022-12-03T21:32:35.305Z,75.70
2022-12-03T21:35:05.546Z,77.40
2022-12-03T21:37:32.351Z,76.90
2022-12-03T21:39:59.265Z,86.00
2022-12-03T21:42:36.872Z,69.50
2022-12-03T21:45:05.208Z,68.20
2022-12-03T21:47:37.342Z,72.60
2022-12-03T21:50:13.291Z,70.60
2022-12-03T21:52:41.435Z,79.20
2022-12-03T21:55:09.046Z,94.30
2022-12-03T21:57:37.230Z,68.70
2022-12-03T22:00:07.136Z,74.00
2022-12-03T22:02:54.359Z,75.20
2022-12-03T22:05:27.663Z,74.60
2022-12-03T22:08:06.025Z,74.40
2022-12-03T22:10:34.101Z,74.10
2022-12-03T22:13:06.561Z,71.30
2022-12-03T22:15:33.531Z,77.30
2022-12-03T22:18:08.315Z,80.60
2022-12-03T22:20:35.193Z,68.90
2022-12-03T22:23:01.870Z,64.90
2022-12-03T22:25:29.923Z,72.50
2022-12-03T22:28:02.369Z,67.70
2022-12-03T22:30:30.957Z,64.50
2022-12-03T22:32:57.709Z,67.10
2022-12-03T22:35:29.170Z,72.70
2022-12-03T22:37:56.061Z,70.00
2022-12-03T22:40:22.742Z,62.00
2022-12-03T22:42:51.047Z,59.40
2022-12-03T22:45:18.071Z,56.10
2022-12-03T22:47:44.834Z,60.30
2022-12-03T22:50:11.674Z,61.90
2022-12-03T22:52:45.780Z,57.70
2022-12-03T22:55:18.764Z,53.30
2022-12-03T22:57:49.932Z,53.00
2022-12-03T23:00:29.011Z,53.60
2022-12-03T23:02:56.037Z,54.50
2022-12-03T23:05:22.903Z,53.50
2022-12-03T23:07:51.607Z,48.00
2022-12-03T23:10:18.576Z,56.80
2022-12-03T23:12:46.928Z,56.80
2022-12-03T23:15:13.950Z,55.90
2022-12-03T23:17:40.951Z,53.00
2022-12-03T23:20:12.793Z,53.00
2022-12-03T23:23:00.587Z,48.40
2022-12-03T23:25:28.711Z,48.30
2022-12-03T23:28:03.582Z,46.20
2022-12-03T23:30:30.611Z,45.70
2022-12-03T23:33:03.044Z,41.70
2022-12-03T23:35:32.046Z,45.70
2022-12-03T23:37:58.767Z,47.80
2022-12-03T23:40:25.593Z,41.60
2022-12-03T23:42:52.581Z,37.80
2022-12-03T23:45:31.338Z,43.00
2022-12-03T23:47:58.685Z,41.80
2022-12-03T23:50:30.901Z,38.10
2022-12-03T23:53:04.181Z,39.20
2022-12-03T23:55:50.353Z,42.10
2022-12-03T23:58:20.231Z,44.60
